createdAt,value
2019-05-14T00:02:21.391Z,5.40
2019-05-14T00:04:51.217Z,5.30
2019-05-14T00:07:22.173Z,5.30
2019-05-14T00:09:51.918Z,5.30
2019-05-14T00:12:22.140Z,5.30
2019-05-14T00:14:51.585Z,5.30
2019-05-14T00:17:21.453Z,5.20
2019-05-14T00:20:05.862Z,5.20
2019-05-14T00:22:21.754Z,5.10
2019-05-14T00:24:51.801Z,5.00
2019-05-14T00:27:21.697Z,4.90
2019-05-14T00:29:51.832Z,4.70
2019-05-14T00:32:21.635Z,4.70
2019-05-14T00:34:51.625Z,4.60
2019-05-14T00:37:21.690Z,4.70
2019-05-14T00:39:52.025Z,4.70
2019-05-14T00:42:21.587Z,4.80
2019-05-14T00:44:57.498Z,4.80
2019-05-14T00:47:21.747Z,4.80
2019-05-14T00:49:51.806Z,4.90
2019-05-14T00:52:22.248Z,4.80
2019-05-14T00:54:52.256Z,4.80
2019-05-14T00:57:21.177Z,4.80
2019-05-14T00:59:51.927Z,4.80
2019-05-14T01:02:21.597Z,4.80
2019-05-14T01:04:51.391Z,4.80
2019-05-14T01:07:21.145Z,4.70
2019-05-14T01:09:52.136Z,4.70
2019-05-14T01:12:21.430Z,4.70
2019-05-14T01:14:51.565Z,4.60
2019-05-14T01:17:19.484Z,4.60
2019-05-14T01:19:47.757Z,4.60
2019-05-14T01:22:16.004Z,4.50
2019-05-14T01:24:44.268Z,4.50
2019-05-14T01:27:12.699Z,4.50
2019-05-14T01:29:42.487Z,4.50
2019-05-14T01:32:11.821Z,4.40
2019-05-14T01:34:42.119Z,4.40
2019-05-14T01:37:11.680Z,4.40
2019-05-14T01:39:41.864Z,4.40
2019-05-14T01:42:12.484Z,4.40
2019-05-14T01:44:41.243Z,4.40
2019-05-14T01:47:12.437Z,4.40
2019-05-14T01:49:42.518Z,4.40
2019-05-14T01:52:11.317Z,4.40
2019-05-14T01:54:42.442Z,4.30
2019-05-14T01:57:11.490Z,4.30
2019-05-14T01:59:42.518Z,4.30
2019-05-14T02:02:11.602Z,4.20
2019-05-14T02:04:42.440Z,4.20
2019-05-14T02:07:11.530Z,4.20
2019-05-14T02:09:41.753Z,4.20
2019-05-14T02:12:11.584Z,4.10
2019-05-14T02:14:42.137Z,4.10
2019-05-14T02:17:09.484Z,4.00
2019-05-14T02:19:37.753Z,4.00
2019-05-14T02:22:25.416Z,4.00
2019-05-14T02:24:53.652Z,3.90
2019-05-14T02:27:21.889Z,3.80
2019-05-14T02:29:51.917Z,3.80
2019-05-14T02:32:20.101Z,3.80
2019-05-14T02:34:49.961Z,3.70
2019-05-14T02:37:19.451Z,3.70
2019-05-14T02:39:50.280Z,3.70
2019-05-14T02:42:19.665Z,3.70
2019-05-14T02:44:49.014Z,3.60
2019-05-14T02:47:19.452Z,3.60
2019-05-14T02:49:50.101Z,3.60
2019-05-14T02:52:20.349Z,3.60
2019-05-14T02:54:49.529Z,3.50
2019-05-14T02:57:20.025Z,3.50
2019-05-14T02:59:50.190Z,3.50
2019-05-14T03:02:18.809Z,3.50
2019-05-14T03:04:49.827Z,3.50
2019-05-14T03:07:19.441Z,3.40
2019-05-14T03:09:50.297Z,3.30
2019-05-14T03:12:19.359Z,3.20
2019-05-14T03:14:49.790Z,3.20
2019-05-14T03:17:19.929Z,3.20
2019-05-14T03:19:49.591Z,3.20
2019-05-14T03:22:25.878Z,3.20
2019-05-14T03:24:50.012Z,3.20
2019-05-14T03:27:19.359Z,3.20
2019-05-14T03:29:49.560Z,3.10
2019-05-14T03:32:21.781Z,3.20
2019-05-14T03:34:52.190Z,3.20
2019-05-14T03:37:22.562Z,3.20
2019-05-14T03:39:49.327Z,3.20
2019-05-14T03:42:19.353Z,3.30
2019-05-14T03:44:49.068Z,3.30
2019-05-14T03:47:19.402Z,3.40
2019-05-14T03:49:49.564Z,3.50
2019-05-14T03:52:19.639Z,3.70
2019-05-14T03:54:49.713Z,3.90
2019-05-14T03:57:19.786Z,3.90
2019-05-14T03:59:49.621Z,3.80
2019-05-14T04:02:19.804Z,3.70
2019-05-14T04:04:49.761Z,3.80
2019-05-14T04:07:19.391Z,3.80
2019-05-14T04:09:49.324Z,3.90
2019-05-14T04:12:19.178Z,4.60
2019-05-14T04:14:46.470Z,5.80
2019-05-14T04:17:25.926Z,7.00
2019-05-14T04:19:49.297Z,8.00
2019-05-14T04:22:19.037Z,8.70
2019-05-14T04:24:49.374Z,9.20
2019-05-14T04:27:16.247Z,9.60
2019-05-14T04:29:44.502Z,10.10
2019-05-14T04:32:12.787Z,10.10
2019-05-14T04:34:41.069Z,9.80
2019-05-14T04:37:10.091Z,8.60
2019-05-14T04:39:39.563Z,7.50
2019-05-14T04:42:09.526Z,6.90
2019-05-14T04:44:40.303Z,7.80
2019-05-14T04:47:22.746Z,8.60
2019-05-14T04:49:39.908Z,8.40
2019-05-14T04:52:09.942Z,8.60
2019-05-14T04:54:39.376Z,8.40
2019-05-14T04:57:10.226Z,8.30
2019-05-14T04:59:39.628Z,8.40
2019-05-14T05:02:09.566Z,8.10
2019-05-14T05:04:41.013Z,9.80
2019-05-14T05:07:09.864Z,11.40
2019-05-14T05:09:39.717Z,13.00
2019-05-14T05:12:09.110Z,14.80
2019-05-14T05:14:38.981Z,15.80
2019-05-14T05:17:09.105Z,16.30
2019-05-14T05:19:39.841Z,16.40
2019-05-14T05:22:08.114Z,16.40
2019-05-14T05:24:38.080Z,17.30
2019-05-14T05:27:08.972Z,18.00
2019-05-14T05:29:36.373Z,17.00
2019-05-14T05:32:04.640Z,15.40
2019-05-14T05:34:32.880Z,14.60
2019-05-14T05:37:01.128Z,14.90
2019-05-14T05:39:29.382Z,15.60
2019-05-14T05:41:58.519Z,16.30
2019-05-14T05:44:28.796Z,17.00
2019-05-14T05:46:59.431Z,17.90
2019-05-14T05:49:29.178Z,19.00
2019-05-14T05:51:59.169Z,19.10
2019-05-14T05:54:29.106Z,19.00
2019-05-14T05:56:58.128Z,19.60
2019-05-14T05:59:29.016Z,19.90
2019-05-14T06:01:58.730Z,19.80
2019-05-14T06:04:28.756Z,20.00
2019-05-14T06:06:58.550Z,19.80
2019-05-14T06:09:28.582Z,20.30
2019-05-14T06:11:59.022Z,20.50
2019-05-14T06:14:26.450Z,20.60
2019-05-14T06:16:54.705Z,20.70
2019-05-14T06:19:22.952Z,20.40
2019-05-14T06:21:51.197Z,20.50
2019-05-14T06:24:19.538Z,20.50
2019-05-14T06:26:49.035Z,20.60
2019-05-14T06:29:18.664Z,20.50
2019-05-14T06:31:49.372Z,20.30
2019-05-14T06:34:18.687Z,20.20
2019-05-14T06:36:48.661Z,20.50
2019-05-14T06:39:18.296Z,20.90
2019-05-14T06:41:48.994Z,20.80
2019-05-14T06:44:18.740Z,20.80
2019-05-14T06:46:48.669Z,21.30
2019-05-14T06:49:18.361Z,21.80
2019-05-14T06:51:48.958Z,22.00
2019-05-14T06:54:19.620Z,21.20
2019-05-14T06:56:48.800Z,21.20
2019-05-14T06:59:18.175Z,21.20
2019-05-14T07:01:48.760Z,20.60
2019-05-14T07:04:18.165Z,20.60
2019-05-14T07:06:48.536Z,21.10
2019-05-14T07:09:18.383Z,21.10
2019-05-14T07:11:48.939Z,21.30
2019-05-14T07:14:18.786Z,21.20
2019-05-14T07:16:48.505Z,20.40
2019-05-14T07:19:19.080Z,19.80
2019-05-14T07:21:48.998Z,20.40
2019-05-14T07:24:19.266Z,20.20
2019-05-14T07:26:49.124Z,20.80
2019-05-14T07:29:18.513Z,20.30
2019-05-14T07:31:48.753Z,19.50
2019-05-14T07:34:16.331Z,19.40
2019-05-14T07:36:44.584Z,19.80
2019-05-14T07:39:12.845Z,20.50
2019-05-14T07:41:41.089Z,21.10
2019-05-14T07:44:09.427Z,21.10
2019-05-14T07:46:38.987Z,20.90
2019-05-14T07:49:11.432Z,21.50
2019-05-14T07:51:38.756Z,21.80
2019-05-14T07:54:08.363Z,21.90
2019-05-14T07:56:38.451Z,22.50
2019-05-14T07:59:08.910Z,23.00
2019-05-14T08:01:38.843Z,23.00
2019-05-14T08:04:11.077Z,23.00
2019-05-14T08:06:39.204Z,22.80
2019-05-14T08:09:09.016Z,22.70
2019-05-14T08:11:38.772Z,23.30
2019-05-14T08:14:09.052Z,21.70
2019-05-14T08:16:38.113Z,20.50
2019-05-14T08:19:23.045Z,18.80
2019-05-14T08:21:38.789Z,18.70
2019-05-14T08:24:08.823Z,17.60
2019-05-14T08:26:38.239Z,17.70
2019-05-14T08:29:08.600Z,17.80
2019-05-14T08:31:38.338Z,17.70
2019-05-14T08:34:09.064Z,17.60
2019-05-14T08:36:38.030Z,16.60
2019-05-14T08:39:08.845Z,15.60
2019-05-14T08:41:38.390Z,15.10
2019-05-14T08:44:08.571Z,14.40
2019-05-14T08:46:38.849Z,14.10
2019-05-14T08:49:08.950Z,14.30
2019-05-14T08:51:38.780Z,14.20
2019-05-14T08:54:08.249Z,13.80
2019-05-14T08:56:38.921Z,13.50
2019-05-14T08:59:08.646Z,13.50
2019-05-14T09:01:38.703Z,13.60
2019-05-14T09:04:08.980Z,13.50
2019-05-14T09:06:38.512Z,13.60
2019-05-14T09:09:09.249Z,13.70
2019-05-14T09:11:44.593Z,13.60
2019-05-14T09:14:10.780Z,13.70
2019-05-14T09:16:46.225Z,14.10
2019-05-14T09:19:08.718Z,14.00
2019-05-14T09:21:39.808Z,13.80
2019-05-14T09:24:09.572Z,13.70
2019-05-14T09:26:39.121Z,13.90
2019-05-14T09:29:19.707Z,13.90
2019-05-14T09:31:40.140Z,13.30
2019-05-14T09:34:09.209Z,13.40
2019-05-14T09:36:39.549Z,13.60
2019-05-14T09:39:11.804Z,13.70
2019-05-14T09:41:38.795Z,13.70
2019-05-14T09:44:09.319Z,13.90
2019-05-14T09:46:38.454Z,13.90
2019-05-14T09:49:08.037Z,14.30
2019-05-14T09:51:38.359Z,14.50
2019-05-14T09:54:08.599Z,14.50
2019-05-14T09:56:39.349Z,14.40
2019-05-14T09:59:09.014Z,14.20
2019-05-14T10:01:38.369Z,14.40
2019-05-14T10:04:09.035Z,14.50
2019-05-14T10:06:39.023Z,14.50
2019-05-14T10:09:08.527Z,14.50
2019-05-14T10:11:38.368Z,14.80
2019-05-14T10:14:07.949Z,14.60
2019-05-14T10:16:38.441Z,14.80
2019-05-14T10:19:06.469Z,14.80
2019-05-14T10:21:34.712Z,14.50
2019-05-14T10:24:02.967Z,14.30
2019-05-14T10:26:31.216Z,14.60
2019-05-14T10:28:59.464Z,15.10
2019-05-14T10:31:28.883Z,15.30
2019-05-14T10:33:58.887Z,14.80
2019-05-14T10:36:29.805Z,14.50
2019-05-14T10:38:58.816Z,14.30
2019-05-14T10:41:29.084Z,14.00
2019-05-14T10:43:58.849Z,14.40
2019-05-14T10:46:29.060Z,14.80
2019-05-14T10:49:00.223Z,14.90
2019-05-14T10:51:28.298Z,15.40
2019-05-14T10:53:59.450Z,15.30
2019-05-14T10:56:29.523Z,14.70
2019-05-14T10:58:58.367Z,14.80
2019-05-14T11:01:28.484Z,15.20
2019-05-14T11:03:56.850Z,16.00
2019-05-14T11:06:25.100Z,16.20
2019-05-14T11:08:53.364Z,15.60
2019-05-14T11:11:21.604Z,15.00
2019-05-14T11:13:49.850Z,14.50
2019-05-14T11:16:19.090Z,14.70
2019-05-14T11:18:49.658Z,14.40
2019-05-14T11:21:25.982Z,14.80
2019-05-14T11:23:49.135Z,15.30
2019-05-14T11:26:18.413Z,15.40
2019-05-14T11:28:49.103Z,14.80
2019-05-14T11:31:19.064Z,14.20
2019-05-14T11:33:49.380Z,14.00
2019-05-14T11:36:18.765Z,14.40
2019-05-14T11:38:46.980Z,14.80
2019-05-14T11:41:15.233Z,15.30
2019-05-14T11:43:43.481Z,15.80
2019-05-14T11:46:11.757Z,16.10
2019-05-14T11:48:40.057Z,15.20
2019-05-14T11:51:09.176Z,14.80
2019-05-14T11:53:38.642Z,14.60
2019-05-14T11:56:08.706Z,14.50
2019-05-14T11:58:37.128Z,14.40
2019-05-14T12:01:05.385Z,14.60
2019-05-14T12:03:33.629Z,15.40
2019-05-14T12:06:01.883Z,16.00
2019-05-14T12:08:30.124Z,16.30
2019-05-14T12:10:59.343Z,16.20
2019-05-14T12:13:32.119Z,15.70
2019-05-14T12:15:59.130Z,15.80
2019-05-14T12:18:29.217Z,15.90
2019-05-14T12:20:59.410Z,15.40
2019-05-14T12:23:29.780Z,14.90
2019-05-14T12:25:58.808Z,14.40
2019-05-14T12:28:29.211Z,14.10
2019-05-14T12:30:58.350Z,14.50
2019-05-14T12:33:30.501Z,14.90
2019-05-14T12:36:00.262Z,15.30
2019-05-14T12:38:29.506Z,15.30
2019-05-14T12:40:58.489Z,15.30
2019-05-14T12:43:28.297Z,15.40
2019-05-14T12:45:59.370Z,15.40
2019-05-14T12:48:29.539Z,15.30
2019-05-14T12:50:59.316Z,15.30
2019-05-14T12:53:28.799Z,15.70
2019-05-14T12:55:56.816Z,16.00
2019-05-14T12:58:25.064Z,16.20
2019-05-14T13:00:53.322Z,16.00
2019-05-14T13:03:21.561Z,15.60
2019-05-14T13:05:49.817Z,15.40
2019-05-14T13:08:18.518Z,15.30
2019-05-14T13:10:49.259Z,15.10
2019-05-14T13:13:19.571Z,14.80
2019-05-14T13:15:48.448Z,14.20
2019-05-14T13:18:19.259Z,14.20
2019-05-14T13:20:48.143Z,14.60
2019-05-14T13:23:18.421Z,15.20
2019-05-14T13:25:46.572Z,15.60
2019-05-14T13:28:14.821Z,15.10
2019-05-14T13:30:43.081Z,14.80
2019-05-14T13:33:11.340Z,14.90
2019-05-14T13:35:39.661Z,15.00
2019-05-14T13:38:13.992Z,15.30
2019-05-14T13:40:39.219Z,15.50
2019-05-14T13:43:09.822Z,15.70
2019-05-14T13:45:39.161Z,15.70
2019-05-14T13:48:08.478Z,15.90
2019-05-14T13:50:39.973Z,15.70
2019-05-14T13:53:12.275Z,15.40
2019-05-14T13:55:44.352Z,15.30
2019-05-14T13:58:09.515Z,14.90
2019-05-14T14:00:36.998Z,15.00
2019-05-14T14:03:05.258Z,14.80
2019-05-14T14:05:33.493Z,14.90
2019-05-14T14:08:01.754Z,15.00
2019-05-14T14:10:31.424Z,15.10
2019-05-14T14:12:59.965Z,15.20
2019-05-14T14:15:28.878Z,15.60
2019-05-14T14:17:57.336Z,15.90
2019-05-14T14:20:25.574Z,16.00
2019-05-14T14:22:53.825Z,15.80
2019-05-14T14:25:22.076Z,15.50
2019-05-14T14:27:50.320Z,15.00
2019-05-14T14:30:19.502Z,14.60
2019-05-14T14:32:49.518Z,14.50
2019-05-14T14:35:23.776Z,14.40
2019-05-14T14:37:49.355Z,14.50
2019-05-14T14:40:21.411Z,14.50
2019-05-14T14:42:49.209Z,14.30
2019-05-14T14:45:21.514Z,13.90
2019-05-14T14:47:49.771Z,14.10
2019-05-14T14:50:19.400Z,14.30
2019-05-14T14:52:49.583Z,14.80
2019-05-14T14:55:19.287Z,15.30
2019-05-14T14:57:53.697Z,15.60
2019-05-14T15:00:19.396Z,15.20
2019-05-14T15:02:49.585Z,15.00
2019-05-14T15:05:20.007Z,15.10
2019-05-14T15:07:49.741Z,15.20
2019-05-14T15:10:19.321Z,15.30
2019-05-14T15:12:49.653Z,14.90
2019-05-14T15:15:18.635Z,14.40
2019-05-14T15:17:48.378Z,14.30
2019-05-14T15:20:19.284Z,14.40
2019-05-14T15:22:49.153Z,14.40
2019-05-14T15:25:18.497Z,14.40
2019-05-14T15:27:48.908Z,14.20
2019-05-14T15:30:16.728Z,14.10
2019-05-14T15:32:44.985Z,14.20
2019-05-14T15:35:13.237Z,14.50
2019-05-14T15:37:42.729Z,14.70
2019-05-14T15:40:11.425Z,14.80
2019-05-14T15:42:39.833Z,14.70
2019-05-14T15:45:09.392Z,14.90
2019-05-14T15:47:39.074Z,14.90
2019-05-14T15:50:09.165Z,14.80
2019-05-14T15:52:39.371Z,14.20
2019-05-14T15:55:08.772Z,13.80
2019-05-14T15:57:39.648Z,13.40
2019-05-14T16:00:08.709Z,13.20
2019-05-14T16:02:39.381Z,13.10
2019-05-14T16:05:10.052Z,13.00
2019-05-14T16:07:39.283Z,13.10
2019-05-14T16:10:08.625Z,13.40
2019-05-14T16:12:39.765Z,13.80
2019-05-14T16:15:08.611Z,14.00
2019-05-14T16:17:47.786Z,14.20
2019-05-14T16:20:08.945Z,14.40
2019-05-14T16:22:39.832Z,14.70
2019-05-14T16:25:09.034Z,14.80
2019-05-14T16:27:39.477Z,14.50
2019-05-14T16:30:09.857Z,14.30
2019-05-14T16:32:39.400Z,14.00
2019-05-14T16:35:08.855Z,13.70
2019-05-14T16:37:39.286Z,13.30
2019-05-14T16:40:07.643Z,13.00
2019-05-14T16:42:35.889Z,12.90
2019-05-14T16:45:04.789Z,13.00
2019-05-14T16:47:33.033Z,13.10
2019-05-14T16:50:01.295Z,13.30
2019-05-14T16:52:29.544Z,13.50
2019-05-14T16:55:16.981Z,13.60
2019-05-14T16:57:29.367Z,13.50
2019-05-14T16:59:58.571Z,13.40
2019-05-14T17:02:29.432Z,13.30
2019-05-14T17:04:58.900Z,13.30
2019-05-14T17:07:28.727Z,13.10
2019-05-14T17:09:58.154Z,12.90
2019-05-14T17:12:29.210Z,12.70
2019-05-14T17:14:58.651Z,12.60
2019-05-14T17:17:26.541Z,12.50
2019-05-14T17:19:54.789Z,12.40
2019-05-14T17:22:29.051Z,12.40
2019-05-14T17:24:53.032Z,12.50
2019-05-14T17:27:21.265Z,12.60
2019-05-14T17:29:49.754Z,12.60
2019-05-14T17:32:18.762Z,12.60
2019-05-14T17:34:49.030Z,12.50
2019-05-14T17:37:19.052Z,12.60
2019-05-14T17:39:48.936Z,12.60
2019-05-14T17:42:19.287Z,12.60
2019-05-14T17:44:48.222Z,12.60
2019-05-14T17:47:18.358Z,12.60
2019-05-14T17:49:48.524Z,12.60
2019-05-14T17:52:21.717Z,12.60
2019-05-14T17:54:48.424Z,12.50
2019-05-14T17:57:23.657Z,12.50
2019-05-14T17:59:49.122Z,12.40
2019-05-14T18:02:18.894Z,12.30
2019-05-14T18:04:48.780Z,12.20
2019-05-14T18:07:18.998Z,12.10
2019-05-14T18:09:46.551Z,12.20
2019-05-14T18:12:14.793Z,12.10
2019-05-14T18:14:43.032Z,12.10
2019-05-14T18:17:14.658Z,12.00
2019-05-14T18:19:41.257Z,12.00
2019-05-14T18:22:09.512Z,11.80
2019-05-14T18:24:39.277Z,11.80
2019-05-14T18:27:08.363Z,11.70
2019-05-14T18:29:39.013Z,11.60
2019-05-14T18:32:08.978Z,11.50
2019-05-14T18:34:38.992Z,11.40
2019-05-14T18:37:13.504Z,11.40
2019-05-14T18:39:39.246Z,11.30
2019-05-14T18:42:08.649Z,11.20
2019-05-14T18:44:38.940Z,11.10
2019-05-14T18:47:08.713Z,11.10
2019-05-14T18:49:37.481Z,11.10
2019-05-14T18:52:05.747Z,11.10
2019-05-14T18:54:34.188Z,10.90
2019-05-14T18:57:02.514Z,10.80
2019-05-14T18:59:33.954Z,10.70
2019-05-14T19:02:02.213Z,10.70
2019-05-14T19:04:30.463Z,10.50
2019-05-14T19:06:59.113Z,10.40
2019-05-14T19:09:29.241Z,10.30
2019-05-14T19:11:58.812Z,10.30
2019-05-14T19:14:29.270Z,10.20
2019-05-14T19:16:58.548Z,10.10
2019-05-14T19:19:29.373Z,10.00
2019-05-14T19:21:58.357Z,9.90
2019-05-14T19:24:28.649Z,9.80
2019-05-14T19:26:59.367Z,9.60
2019-05-14T19:29:28.185Z,9.50
2019-05-14T19:31:56.680Z,9.50
2019-05-14T19:34:24.917Z,9.50
2019-05-14T19:36:53.160Z,9.40
2019-05-14T19:39:21.408Z,9.40
2019-05-14T19:41:49.815Z,9.30
2019-05-14T19:44:19.168Z,9.30
2019-05-14T19:46:49.210Z,9.20
2019-05-14T19:49:18.470Z,9.20
2019-05-14T19:51:48.299Z,9.20
2019-05-14T19:54:19.477Z,9.20
2019-05-14T19:56:55.701Z,9.10
2019-05-14T19:59:18.329Z,9.10
2019-05-14T20:01:48.421Z,9.00
2019-05-14T20:04:18.336Z,9.00
2019-05-14T20:06:49.428Z,8.90
2019-05-14T20:09:18.784Z,8.80
2019-05-14T20:11:49.039Z,8.70
2019-05-14T20:14:17.002Z,8.60
2019-05-14T20:16:45.244Z,8.60
2019-05-14T20:19:13.491Z,8.60
2019-05-14T20:21:41.741Z,8.60
2019-05-14T20:24:09.980Z,8.50
2019-05-14T20:26:39.031Z,8.40
2019-05-14T20:29:08.751Z,8.30
2019-05-14T20:31:38.917Z,8.20
2019-05-14T20:34:08.480Z,8.10
2019-05-14T20:36:38.791Z,8.10
2019-05-14T20:39:08.624Z,8.10
2019-05-14T20:41:38.431Z,8.10
2019-05-14T20:44:06.740Z,8.10
2019-05-14T20:46:34.986Z,8.00
2019-05-14T20:49:03.248Z,7.80
2019-05-14T20:51:31.485Z,7.60
2019-05-14T20:53:59.733Z,7.50
2019-05-14T20:56:28.529Z,7.50
2019-05-14T20:58:58.821Z,7.40
2019-05-14T21:01:28.913Z,7.40
2019-05-14T21:03:59.027Z,7.30
2019-05-14T21:06:28.040Z,7.30
2019-05-14T21:08:58.506Z,7.20
2019-05-14T21:11:28.798Z,7.20
2019-05-14T21:13:58.109Z,7.20
2019-05-14T21:16:28.284Z,7.10
2019-05-14T21:18:59.055Z,7.00
2019-05-14T21:21:28.264Z,6.90
2019-05-14T21:23:58.718Z,6.90
2019-05-14T21:26:29.045Z,6.90
2019-05-14T21:28:58.311Z,6.80
2019-05-14T21:31:28.414Z,6.70
2019-05-14T21:33:58.603Z,6.70
2019-05-14T21:36:28.394Z,6.80
2019-05-14T21:38:58.671Z,6.90
2019-05-14T21:41:28.934Z,6.80
2019-05-14T21:43:58.450Z,6.70
2019-05-14T21:46:28.896Z,6.60
2019-05-14T21:48:58.417Z,6.50
2019-05-14T21:51:28.348Z,6.50
2019-05-14T21:53:58.662Z,6.40
2019-05-14T21:56:28.999Z,6.40
2019-05-14T21:58:58.575Z,6.40
2019-05-14T22:01:27.739Z,6.30
2019-05-14T22:03:56.420Z,6.40
2019-05-14T22:06:24.673Z,6.50
2019-05-14T22:08:52.918Z,6.40
2019-05-14T22:11:21.156Z,6.40
2019-05-14T22:13:49.751Z,6.30
2019-05-14T22:16:18.994Z,6.10
2019-05-14T22:18:48.402Z,6.00
2019-05-14T22:21:18.327Z,5.90
2019-05-14T22:23:48.175Z,5.80
2019-05-14T22:26:18.654Z,5.70
2019-05-14T22:28:47.897Z,5.60
2019-05-14T22:31:17.163Z,5.50
2019-05-14T22:33:46.257Z,5.50
2019-05-14T22:36:14.492Z,5.50
2019-05-14T22:38:42.756Z,5.50
2019-05-14T22:41:11.574Z,5.40
2019-05-14T22:43:40.116Z,5.40
2019-05-14T22:46:08.530Z,5.30
2019-05-14T22:48:37.079Z,5.10
2019-05-14T22:51:05.317Z,5.10
2019-05-14T22:53:33.565Z,5.00
2019-05-14T22:56:01.796Z,5.00
2019-05-14T22:58:30.039Z,4.90
2019-05-14T23:01:13.199Z,4.80
2019-05-14T23:03:28.825Z,4.70
2019-05-14T23:05:58.193Z,4.60
2019-05-14T23:08:26.829Z,4.60
2019-05-14T23:10:55.076Z,4.60
2019-05-14T23:13:23.316Z,4.60
2019-05-14T23:15:51.566Z,4.60
2019-05-14T23:18:19.800Z,4.50
2019-05-14T23:20:49.224Z,4.50
2019-05-14T23:23:18.528Z,4.50
2019-05-14T23:25:46.994Z,4.40
2019-05-14T23:28:15.226Z,4.40
2019-05-14T23:30:43.481Z,4.40
2019-05-14T23:33:11.785Z,4.40
2019-05-14T23:35:40.032Z,4.40
2019-05-14T23:38:08.534Z,4.40
2019-05-14T23:40:38.732Z,4.40
2019-05-14T23:43:06.928Z,4.50
2019-05-14T23:45:35.185Z,4.50
2019-05-14T23:48:03.427Z,4.50
2019-05-14T23:50:31.684Z,4.50
2019-05-14T23:53:00.182Z,4.50
2019-05-14T23:55:28.936Z,4.50
2019-05-14T23:57:58.624Z,4.50
